首页
METAR-TAF:

METAR-TAF

机场 :

罗马-钱皮诺机场

罗马Ciampino, 意大利

纬度: 41-47N, 经度: 012-35E, 海拔: 129米

当前天气观测

该预报发布于2小时和42分钟前的02:20 UTC
风速12节,风向南转南东
温度 14°C
湿度 72%
气压 1012 hPa
能见度10公里或以上
散云层高于3000英尺

METAR: LIRA 190220Z 15012KT 9999 SCT030 14/09 Q1012

时间: 06:02 (05:02 UTC)

预报

该预报发布于6小时和2分钟前的23:00 UTC
预报有效从19日的 00点(UTC)到 19日的 24点(UTC)
风速14节,风向东南
能见度10公里或以上
散云层高于3000英尺
短暂存在
从 19日的 00点(UTC)到 19日的 09点(UTC)
阵雨
短暂存在
从 19日的 12点(UTC)到 19日的 19点(UTC)
能見度: 4000
阵雨
成为
从 19日的 16点(UTC)到 19日的 18点(UTC)
风速5节,风向多变

TAF: LIRA 182300Z 1900/1924 14014KT 9999 SCT030 TEMPO 1900/1909 SHRA TEMPO 1912/1919 4000 SHRA BECMG 1916/1918 VRB05KT

超过4000个机场的气象观测和天气预报(METAR&TAF报告)。

可查询的气象台以黄色和红色小点在地图上表示。

将鼠标移到小点上方,可查看气象台名称。

然后点击查看天气观测和预报。

如需切换地图:点击带黑十字的绿色按钮放大地图;点击带横线的绿色按钮缩小地图;或者点击绿色箭头查看邻近地区的地图。


METAR-TAF: